Time;durP1;ratioP1;P1;durP2;ratioP2;P2;SDS_P1;SDS_P2;PMS_P1;PMS_P2;Temp;Humidity;BMP_temperature;BMP_pressure;BME280_temperature;BME280_humidity;BME280_pressure;Samples;Min_cycle;Max_cycle;Signal;HPM_P1;HPM_P2
2021/03/05 00:00:08;;;;;;;74.90;16.97;;;7.50;1.00;;;;;;5132634;27;20630;-67
2021/03/05 00:02:35;;;;;;;75.15;16.52;;;7.50;1.00;;;;;;5132465;27;20438;-67
2021/03/05 00:05:02;;;;;;;72.63;15.67;;;7.50;1.00;;;;;;5132409;27;20706;-66
2021/03/05 00:07:29;;;;;;;76.78;17.38;;;7.40;1.00;;;;;;5131615;27;20488;-67
2021/03/05 00:09:55;;;;;;;78.63;19.50;;;7.40;1.00;;;;;;5132083;27;20210;-67
2021/03/05 00:12:21;;;;;;;78.25;20.05;;;7.30;1.00;;;;;;5132487;27;20207;-66
2021/03/05 00:14:48;;;;;;;80.47;21.38;;;7.20;1.00;;;;;;5132593;27;20217;-66
2021/03/05 00:17:15;;;;;;;78.22;19.52;;;7.20;1.00;;;;;;5132339;27;20239;-67
2021/03/05 00:19:41;;;;;;;73.32;16.70;;;7.10;1.00;;;;;;5132248;27;20300;-66
2021/03/05 00:22:08;;;;;;;77.15;17.88;;;7.00;1.00;;;;;;5132254;27;20256;-67
2021/03/05 00:24:35;;;;;;;73.50;17.58;;;6.90;1.00;;;;;;5132125;27;20294;-67
2021/03/05 00:27:01;;;;;;;74.75;17.70;;;6.80;1.00;;;;;;5132080;27;20254;-67
2021/03/05 00:29:28;;;;;;;79.53;20.58;;;6.60;1.00;;;;;;5130605;27;20200;-67
2021/03/05 00:31:54;;;;;;;74.65;17.48;;;6.50;1.00;;;;;;5129355;27;20194;-67
2021/03/05 00:34:22;;;;;;;79.18;20.85;;;6.40;1.00;;;;;;5132014;27;20266;-67
2021/03/05 00:36:48;;;;;;;77.72;19.40;;;6.30;1.00;;;;;;5131649;27;20711;-67
2021/03/05 00:39:15;;;;;;;77.75;19.40;;;6.20;1.00;;;;;;5132199;27;20215;-67
2021/03/05 00:41:42;;;;;;;79.35;19.60;;;6.20;1.00;;;;;;5132133;27;20264;-67
2021/03/05 00:44:08;;;;;;;82.35;21.70;;;6.10;1.00;;;;;;5132306;27;20203;-67
2021/03/05 00:46:35;;;;;;;79.88;20.73;;;6.10;1.00;;;;;;5131910;27;20222;-67
2021/03/05 00:49:02;;;;;;;80.55;21.02;;;6.00;1.00;;;;;;5131884;27;20207;-67
2021/03/05 00:51:30;;;;;;;82.95;24.02;;;6.00;1.00;;;;;;5131831;27;20750;-67
2021/03/05 00:53:56;;;;;;;81.50;23.10;;;6.00;1.00;;;;;;5130074;27;20205;-67
2021/03/05 00:56:22;;;;;;;79.95;22.38;;;6.00;1.00;;;;;;5131798;27;20235;-67
2021/03/05 00:58:48;;;;;;;81.97;22.65;;;5.90;1.00;;;;;;5131853;27;20228;-67
2021/03/05 01:01:15;;;;;;;82.90;22.85;;;5.90;1.00;;;;;;5131882;27;20662;-67
2021/03/05 01:03:41;;;;;;;80.68;23.23;;;5.80;1.00;;;;;;5131533;27;20615;-67
2021/03/05 01:06:08;;;;;;;85.05;23.88;;;5.80;1.00;;;;;;5131708;27;20234;-66
2021/03/05 01:08:35;;;;;;;82.78;21.58;;;5.80;1.00;;;;;;5131904;27;20301;-67
2021/03/05 01:11:03;;;;;;;84.90;23.67;;;5.70;1.00;;;;;;5132116;27;20214;-67
2021/03/05 01:13:29;;;;;;;83.65;23.92;;;5.70;1.00;;;;;;5131709;27;20455;-67
2021/03/05 01:15:56;;;;;;;82.57;22.45;;;5.60;1.00;;;;;;5131744;27;20255;-67
2021/03/05 01:18:22;;;;;;;84.80;22.92;;;5.60;1.00;;;;;;5132379;27;20211;-67
2021/03/05 01:20:49;;;;;;;82.97;22.30;;;5.50;1.00;;;;;;5135463;27;20272;-67
2021/03/05 01:23:16;;;;;;;81.47;20.70;;;5.50;1.00;;;;;;5135517;27;20575;-67
2021/03/05 01:25:43;;;;;;;85.95;22.20;;;5.40;1.00;;;;;;5135239;27;20711;-67
2021/03/05 01:28:10;;;;;;;85.65;21.70;;;5.30;1.00;;;;;;5135308;27;20218;-67
2021/03/05 01:30:36;;;;;;;84.43;21.85;;;5.30;1.00;;;;;;5135309;27;20289;-67
2021/03/05 01:33:03;;;;;;;81.10;21.73;;;5.20;1.00;;;;;;5135022;27;20576;-67
2021/03/05 01:35:30;;;;;;;83.63;21.33;;;5.20;1.00;;;;;;5134697;27;20227;-67
2021/03/05 01:37:56;;;;;;;81.30;19.48;;;5.10;1.00;;;;;;5135508;27;20297;-67
2021/03/05 01:40:30;;;;;;;80.82;19.55;;;5.10;1.00;;;;;;5135322;27;20620;-67
2021/03/05 01:42:58;;;;;;;78.72;18.10;;;5.00;1.00;;;;;;5135122;27;20230;-67
2021/03/05 01:45:27;;;;;;;83.22;19.02;;;4.90;1.00;;;;;;5134953;27;20286;-67
2021/03/05 01:47:55;;;;;;;81.97;19.40;;;4.90;1.00;;;;;;5134771;27;20205;-67
2021/03/05 01:50:25;;;;;;;79.05;19.15;;;4.80;1.00;;;;;;5132547;27;20225;-67
2021/03/05 01:52:56;;;;;;;79.47;18.13;;;4.70;1.00;;;;;;5132910;27;20302;-66
2021/03/05 01:55:22;;;;;;;77.82;18.85;;;4.70;1.00;;;;;;5134636;27;20214;-67
2021/03/05 01:57:49;;;;;;;82.40;20.60;;;4.70;1.00;;;;;;5134618;27;20293;-67
2021/03/05 02:00:19;;;;;;;78.82;19.17;;;4.70;1.00;;;;;;5134380;27;20281;-66
2021/03/05 02:02:46;;;;;;;81.65;19.48;;;4.60;1.00;;;;;;5134770;27;20199;-67
2021/03/05 02:05:13;;;;;;;79.15;18.65;;;4.60;1.00;;;;;;5134573;27;20271;-67
2021/03/05 02:07:40;;;;;;;77.90;18.60;;;4.60;1.00;;;;;;5134584;27;20226;-66
2021/03/05 02:10:08;;;;;;;79.22;20.02;;;4.50;1.00;;;;;;5134547;27;20251;-67
2021/03/05 02:12:34;;;;;;;77.57;18.23;;;4.50;1.00;;;;;;5136245;27;20289;-67
2021/03/05 02:15:02;;;;;;;81.05;19.80;;;4.50;1.00;;;;;;5148531;27;20294;-67
2021/03/05 02:17:34;;;;;;;83.55;20.60;;;4.50;1.00;;;;;;5150286;27;20222;-67
2021/03/05 02:20:22;;;;;;;83.13;19.60;;;4.50;1.00;;;;;;5145114;27;20587;-67
2021/03/05 02:23:21;;;;;;;84.25;19.85;;;4.50;1.00;;;;;;5140925;27;20256;-67
2021/03/05 02:26:25;;;;;;;79.00;20.27;;;4.40;1.00;;;;;;5143561;27;20219;-67
2021/03/05 02:29:30;;;;;;;83.05;20.92;;;4.40;1.00;;;;;;5142517;27;20206;-67
2021/03/05 02:32:02;;;;;;;84.13;21.08;;;4.40;1.00;;;;;;5123830;27;20202;-67
2021/03/05 02:34:32;;;;;;;83.95;21.75;;;4.40;1.00;;;;;;5142181;27;20203;-67
2021/03/05 02:37:02;;;;;;;86.53;22.88;;;4.40;1.00;;;;;;5141428;27;20313;-67
2021/03/05 02:39:38;;;;;;;84.97;21.15;;;4.40;1.00;;;;;;5142858;27;20225;-67
2021/03/05 02:42:08;;;;;;;85.13;21.85;;;4.40;1.00;;;;;;5142801;27;20207;-67
2021/03/05 02:44:43;;;;;;;88.90;22.40;;;4.40;1.00;;;;;;5142651;27;20587;-67
2021/03/05 02:47:14;;;;;;;85.82;21.73;;;4.40;1.00;;;;;;5142448;27;20233;-67
2021/03/05 02:49:43;;;;;;;84.97;22.67;;;4.40;1.00;;;;;;5142561;27;20203;-67
2021/03/05 02:52:14;;;;;;;82.47;21.67;;;4.40;1.00;;;;;;5141988;27;20301;-66
2021/03/05 02:54:42;;;;;;;81.85;20.08;;;4.40;1.00;;;;;;5134793;27;20579;-67
2021/03/05 02:57:11;;;;;;;83.68;20.80;;;4.40;1.00;;;;;;5142634;27;20686;-66
2021/03/05 02:59:40;;;;;;;81.03;20.05;;;4.40;1.00;;;;;;5142585;27;20290;-66
2021/03/05 03:02:07;;;;;;;83.80;21.00;;;4.30;1.00;;;;;;5133241;27;20437;-67
2021/03/05 03:04:36;;;;;;;84.47;19.10;;;4.30;1.00;;;;;;5142084;27;20240;-67
2021/03/05 03:07:03;;;;;;;85.72;20.88;;;4.30;1.00;;;;;;5141640;27;20301;-66
2021/03/05 03:09:30;;;;;;;80.72;19.00;;;4.30;1.00;;;;;;5142042;27;20340;-66
2021/03/05 03:11:57;;;;;;;82.00;19.55;;;4.30;1.00;;;;;;5141773;27;20235;-66
2021/03/05 03:14:24;;;;;;;81.38;20.90;;;4.20;1.00;;;;;;5141213;27;20215;-66
2021/03/05 03:16:51;;;;;;;82.95;18.67;;;4.20;1.00;;;;;;5141301;27;20375;-66
2021/03/05 03:19:21;;;;;;;84.38;20.42;;;4.30;1.00;;;;;;5140591;27;20675;-66
2021/03/05 03:21:48;;;;;;;78.32;18.90;;;4.30;1.00;;;;;;5141797;27;20269;-66
2021/03/05 03:24:15;;;;;;;81.93;20.55;;;4.30;1.00;;;;;;5140401;27;20278;-67
2021/03/05 03:26:42;;;;;;;81.50;19.67;;;4.30;1.00;;;;;;5140491;27;20771;-67
2021/03/05 03:29:09;;;;;;;85.38;19.98;;;4.30;1.00;;;;;;5140466;27;20207;-66
2021/03/05 03:31:36;;;;;;;75.28;17.40;;;4.30;1.00;;;;;;5140947;27;20203;-67
2021/03/05 03:34:05;;;;;;;79.32;19.27;;;4.30;1.00;;;;;;5140219;27;20297;-66
2021/03/05 03:36:35;;;;;;;79.75;20.02;;;4.30;1.00;;;;;;5140779;27;20257;-66
2021/03/05 03:39:04;;;;;;;78.13;18.52;;;4.30;1.00;;;;;;5139690;27;20233;-66
2021/03/05 03:41:30;;;;;;;79.50;20.45;;;4.30;1.00;;;;;;5139415;27;20788;-67
2021/03/05 03:43:57;;;;;;;76.47;16.85;;;4.20;1.00;;;;;;5138986;27;20301;-66
2021/03/05 03:46:23;;;;;;;74.85;16.55;;;4.20;1.00;;;;;;5138805;27;20219;-67
2021/03/05 03:48:54;;;;;;;79.28;19.58;;;4.20;1.00;;;;;;5138834;27;20700;-66
2021/03/05 03:51:23;;;;;;;78.05;18.38;;;4.20;1.00;;;;;;5131605;27;20610;-67
2021/03/05 03:53:51;;;;;;;77.80;18.33;;;4.20;1.00;;;;;;5133474;27;20614;-66
2021/03/05 03:56:19;;;;;;;74.22;16.45;;;4.20;1.00;;;;;;5132434;27;20238;-66
2021/03/05 03:58:49;;;;;;;74.65;17.55;;;4.20;1.00;;;;;;5132529;27;20227;-67
2021/03/05 04:01:17;;;;;;;73.82;17.30;;;4.20;1.00;;;;;;5132812;27;20229;-67
2021/03/05 04:03:48;;;;;;;75.20;17.58;;;4.20;1.00;;;;;;5132347;27;20256;-66
2021/03/05 04:06:19;;;;;;;73.38;17.30;;;4.20;1.00;;;;;;5132535;27;20222;-66
2021/03/05 04:08:46;;;;;;;77.88;16.60;;;4.20;1.00;;;;;;5132548;27;20207;-67
2021/03/05 04:11:13;;;;;;;73.72;16.35;;;4.10;1.00;;;;;;5132677;27;20610;-66
2021/03/05 04:13:41;;;;;;;73.70;17.67;;;4.10;1.00;;;;;;5132189;27;20627;-67
2021/03/05 04:16:08;;;;;;;73.35;16.20;;;4.10;1.00;;;;;;5132574;27;20230;-67
2021/03/05 04:18:35;;;;;;;73.30;16.27;;;4.10;1.00;;;;;;5132451;27;20199;-66
2021/03/05 04:21:05;;;;;;;73.38;15.63;;;4.10;1.00;;;;;;5132548;27;20215;-67
2021/03/05 04:23:31;;;;;;;74.38;16.00;;;4.10;1.00;;;;;;5132706;27;20289;-67
2021/03/05 04:25:57;;;;;;;71.95;14.68;;;4.10;1.00;;;;;;5132277;27;20238;-67
2021/03/05 04:28:24;;;;;;;73.38;16.65;;;4.10;1.00;;;;;;5132262;27;20253;-67
2021/03/05 04:30:51;;;;;;;71.63;14.25;;;4.10;1.00;;;;;;5132466;27;20217;-66
2021/03/05 04:33:17;;;;;;;74.35;15.70;;;4.10;1.00;;;;;;5132233;27;20214;-67
2021/03/05 04:35:44;;;;;;;75.43;16.23;;;4.10;1.00;;;;;;5132140;27;20233;-66
2021/03/05 04:38:10;;;;;;;71.57;14.70;;;4.10;1.00;;;;;;5132251;27;20317;-66
2021/03/05 04:40:36;;;;;;;72.05;14.60;;;4.10;1.00;;;;;;5133491;27;20289;-67
2021/03/05 04:43:03;;;;;;;71.38;14.85;;;4.10;1.00;;;;;;5138093;27;20210;-67
2021/03/05 04:45:29;;;;;;;72.28;15.50;;;4.00;1.00;;;;;;5137512;27;20294;-67
2021/03/05 04:47:56;;;;;;;73.10;15.85;;;4.00;1.00;;;;;;5137305;27;20199;-67
2021/03/05 04:50:23;;;;;;;70.95;13.77;;;4.00;1.00;;;;;;5136532;28;20726;-67
2021/03/05 04:52:49;;;;;;;74.38;14.85;;;4.00;1.00;;;;;;5129045;27;20253;-66
2021/03/05 04:55:16;;;;;;;71.90;14.80;;;4.00;1.00;;;;;;5133374;27;20248;-66
2021/03/05 04:57:42;;;;;;;72.60;15.75;;;4.00;1.00;;;;;;5135887;27;20230;-66
2021/03/05 05:00:09;;;;;;;71.95;14.45;;;4.00;1.00;;;;;;5135777;27;20207;-67
2021/03/05 05:02:36;;;;;;;72.32;14.90;;;4.00;1.00;;;;;;5135880;27;20521;-67
2021/03/05 05:05:04;;;;;;;70.90;14.05;;;4.00;1.00;;;;;;5135836;27;20207;-67
2021/03/05 05:07:30;;;;;;;72.35;14.38;;;4.00;1.00;;;;;;5132344;27;20222;-66
2021/03/05 05:09:56;;;;;;;73.25;15.13;;;4.00;1.00;;;;;;5134321;27;20207;-67
2021/03/05 05:12:23;;;;;;;72.25;15.02;;;4.10;1.00;;;;;;5135693;27;20289;-67
2021/03/05 05:14:49;;;;;;;74.70;16.60;;;4.10;1.00;;;;;;5135445;27;20203;-67
2021/03/05 05:17:15;;;;;;;72.72;15.05;;;4.00;1.00;;;;;;5135234;27;20754;-67
2021/03/05 05:19:42;;;;;;;71.57;14.40;;;4.10;1.00;;;;;;5135474;27;20210;-66
2021/03/05 05:22:10;;;;;;;76.75;14.70;;;4.10;1.00;;;;;;5135176;27;20316;-67
2021/03/05 05:24:37;;;;;;;71.90;14.13;;;4.10;1.00;;;;;;5135163;27;20716;-67
2021/03/05 05:27:04;;;;;;;70.30;13.13;;;4.10;1.00;;;;;;5114983;28;20264;-66
2021/03/05 05:29:31;;;;;;;68.10;11.80;;;4.00;1.00;;;;;;5114782;28;20206;-66
2021/03/05 05:31:57;;;;;;;69.53;12.75;;;4.00;1.00;;;;;;5114700;28;20211;-66
2021/03/05 05:34:23;;;;;;;68.95;12.10;;;4.00;1.00;;;;;;5114731;28;20203;-67
2021/03/05 05:36:50;;;;;;;66.63;11.18;;;4.00;1.00;;;;;;5114375;28;20224;-67
2021/03/05 05:39:17;;;;;;;67.70;12.10;;;4.00;1.00;;;;;;5114458;28;20371;-67
2021/03/05 05:41:44;;;;;;;69.88;12.93;;;4.00;1.00;;;;;;5114482;28;20295;-67
2021/03/05 05:44:10;;;;;;;68.07;11.43;;;3.90;1.00;;;;;;5114559;28;20576;-67
2021/03/05 05:46:39;;;;;;;67.60;11.40;;;3.90;1.00;;;;;;5114342;28;20220;-66
2021/03/05 05:49:07;;;;;;;68.53;12.90;;;3.90;1.00;;;;;;5114171;28;20210;-67
2021/03/05 05:51:35;;;;;;;66.78;10.55;;;3.90;1.00;;;;;;5114374;27;20245;-67
2021/03/05 05:54:07;;;;;;;67.03;11.93;;;3.90;1.00;;;;;;5134140;27;20203;-66
2021/03/05 05:56:39;;;;;;;67.32;11.40;;;3.90;1.00;;;;;;5134466;27;20763;-67
2021/03/05 05:59:06;;;;;;;67.40;10.52;;;3.90;1.00;;;;;;5134672;27;20252;-66
2021/03/05 06:01:34;;;;;;;67.88;11.90;;;3.90;1.00;;;;;;5134642;27;20690;-67
2021/03/05 06:04:01;;;;;;;67.43;11.18;;;3.90;1.00;;;;;;5134429;27;20610;-67
2021/03/05 06:06:28;;;;;;;66.47;11.15;;;3.90;1.00;;;;;;5133346;27;20221;-67
2021/03/05 06:08:57;;;;;;;69.32;11.73;;;3.90;1.00;;;;;;5134665;27;20195;-67
2021/03/05 06:11:23;;;;;;;68.97;11.80;;;3.90;1.00;;;;;;5134539;27;20213;-66
2021/03/05 06:13:51;;;;;;;68.50;11.05;;;3.90;1.00;;;;;;5134406;27;20585;-66
2021/03/05 06:16:18;;;;;;;72.18;12.13;;;3.80;1.00;;;;;;5134303;27;20268;-67
2021/03/05 06:18:46;;;;;;;69.20;12.57;;;3.80;1.00;;;;;;5134201;27;20317;-67
2021/03/05 06:21:13;;;;;;;69.78;11.52;;;3.80;1.00;;;;;;5134559;27;20199;-67
2021/03/05 06:23:56;;;;;;;74.05;13.48;;;3.80;1.00;;;;;;5134134;27;20727;-67
2021/03/05 06:26:22;;;;;;;71.32;11.65;;;3.80;1.00;;;;;;5132458;27;20223;-66
2021/03/05 06:29:01;;;;;;;68.65;11.40;;;3.80;1.00;;;;;;5132567;27;20263;-67
2021/03/05 06:31:28;;;;;;;68.70;11.88;;;3.70;1.00;;;;;;5129150;27;20207;-66
2021/03/05 06:33:57;;;;;;;68.07;11.15;;;3.70;1.00;;;;;;5133692;27;20253;-66
2021/03/05 06:36:24;;;;;;;69.75;10.77;;;3.70;1.00;;;;;;5133746;27;20234;-66
2021/03/05 06:38:50;;;;;;;69.22;12.40;;;3.70;1.00;;;;;;5133781;27;20302;-66
2021/03/05 06:41:22;;;;;;;69.40;12.27;;;3.70;1.00;;;;;;5133814;27;20199;-66
2021/03/05 06:43:50;;;;;;;73.47;12.60;;;3.70;1.00;;;;;;5133849;27;20202;-66
2021/03/05 06:46:31;;;;;;;74.80;11.18;;;3.70;1.00;;;;;;5133989;27;20452;-66
2021/03/05 06:48:59;;;;;;;69.25;10.80;;;3.60;1.00;;;;;;5133932;27;20266;-66
2021/03/05 06:51:26;;;;;;;69.05;11.82;;;3.70;1.00;;;;;;5133731;27;20714;-66
2021/03/05 06:54:03;;;;;;;71.45;12.20;;;3.70;1.00;;;;;;5129141;27;20286;-66
2021/03/05 06:56:30;;;;;;;72.90;11.80;;;3.60;1.00;;;;;;5129758;27;20568;-66
2021/03/05 06:59:05;;;;;;;71.15;12.48;;;3.60;1.00;;;;;;5133173;27;20250;-66
2021/03/05 07:01:33;;;;;;;69.75;12.45;;;3.60;1.00;;;;;;5133691;27;20225;-66
2021/03/05 07:04:07;;;;;;;72.53;12.18;;;3.60;1.00;;;;;;5133127;27;20223;-66
2021/03/05 07:06:34;;;;;;;72.75;13.27;;;3.60;1.00;;;;;;5133231;27;20580;-66
2021/03/05 07:09:01;;;;;;;70.88;11.32;;;3.60;1.00;;;;;;5133598;27;20218;-66
2021/03/05 07:11:39;;;;;;;69.43;11.73;;;3.70;1.00;;;;;;5133306;27;20212;-66
2021/03/05 07:14:08;;;;;;;71.20;12.20;;;3.70;1.00;;;;;;5133364;27;20582;-66
2021/03/05 07:16:46;;;;;;;69.63;11.70;;;3.70;1.00;;;;;;5133003;27;20321;-66
2021/03/05 07:19:17;;;;;;;72.60;12.25;;;3.70;1.00;;;;;;5133521;27;20249;-66
2021/03/05 07:21:46;;;;;;;73.57;12.55;;;3.70;1.00;;;;;;5133168;27;20203;-66
2021/03/05 07:24:14;;;;;;;72.55;13.38;;;3.80;1.00;;;;;;5127298;27;20210;-66
2021/03/05 07:26:53;;;;;;;72.95;14.07;;;3.80;1.00;;;;;;5133099;27;20298;-66
2021/03/05 07:29:24;;;;;;;71.25;13.18;;;3.80;1.00;;;;;;5132977;27;20206;-66
2021/03/05 07:32:06;;;;;;;70.88;12.73;;;3.80;1.00;;;;;;5132770;27;20206;-66
2021/03/05 07:34:45;;;;;;;71.72;12.30;;;3.90;1.00;;;;;;5133251;27;20630;-66
2021/03/05 07:37:14;;;;;;;71.90;12.38;;;3.90;1.00;;;;;;5132615;27;20625;-66
2021/03/05 07:39:43;;;;;;;72.90;13.93;;;3.90;1.00;;;;;;5132693;27;20206;-66
2021/03/05 07:42:10;;;;;;;72.80;13.57;;;4.00;1.00;;;;;;5132633;27;20207;-66
2021/03/05 07:44:37;;;;;;;72.75;12.80;;;4.00;1.00;;;;;;5132952;27;20576;-66
2021/03/05 07:47:08;;;;;;;70.25;12.80;;;4.10;1.00;;;;;;5132575;27;20222;-66
2021/03/05 07:49:36;;;;;;;71.97;13.13;;;4.10;1.00;;;;;;5132183;27;20694;-66
2021/03/05 07:52:03;;;;;;;78.00;15.30;;;4.10;1.00;;;;;;5132599;27;20203;-66
2021/03/05 07:54:46;;;;;;;71.65;12.93;;;4.20;1.00;;;;;;5132371;27;20209;-66
2021/03/05 07:57:46;;;;;;;71.22;13.70;;;4.20;1.00;;;;;;5132598;27;20226;-66
2021/03/05 08:00:15;;;;;;;70.60;11.55;;;4.30;1.00;;;;;;5132512;27;20217;-66
2021/03/05 08:02:54;;;;;;;74.70;12.73;;;4.30;1.00;;;;;;5132260;27;20249;-66
2021/03/05 08:05:34;;;;;;;71.30;12.27;;;4.40;1.00;;;;;;5132619;27;20198;-66
2021/03/05 08:08:09;;;;;;;70.57;12.13;;;4.40;1.00;;;;;;5132835;27;20250;-66
2021/03/05 08:10:36;;;;;;;72.38;12.45;;;4.40;1.00;;;;;;5132466;27;20204;-66
2021/03/05 08:13:02;;;;;;;69.68;12.45;;;4.50;1.00;;;;;;5132281;27;20202;-66
2021/03/05 08:15:29;;;;;;;75.35;13.38;;;4.50;1.00;;;;;;5132479;27;20207;-66
2021/03/05 08:17:57;;;;;;;72.60;12.60;;;4.50;1.00;;;;;;5132441;27;20313;-66
2021/03/05 08:20:55;;;;;;;72.63;13.07;;;4.50;1.00;;;;;;5132261;27;20213;-66
2021/03/05 08:23:21;;;;;;;75.80;12.95;;;4.60;1.00;;;;;;5132249;27;20309;-66
2021/03/05 08:25:53;;;;;;;75.88;13.32;;;4.70;1.00;;;;;;5131988;27;20696;-66
2021/03/05 08:28:46;;;;;;;71.65;13.38;;;4.70;1.00;;;;;;5133451;27;20206;-66
2021/03/05 08:31:36;;;;;;;72.68;14.00;;;4.70;1.00;;;;;;5137044;27;20214;-66
2021/03/05 08:34:26;;;;;;;70.00;12.02;;;4.70;1.00;;;;;;5120718;27;20209;-66
2021/03/05 08:36:52;;;;;;;71.95;12.77;;;4.70;1.00;;;;;;5136149;27;20227;-66
2021/03/05 08:39:26;;;;;;;70.47;12.35;;;4.70;1.00;;;;;;5136375;27;20242;-66
2021/03/05 08:42:27;;;;;;;71.80;13.60;;;4.80;1.00;;;;;;5136438;27;20289;-66
2021/03/05 08:45:11;;;;;;;71.65;12.55;;;4.80;1.00;;;;;;5136699;27;20210;-66
2021/03/05 08:47:39;;;;;;;70.28;12.75;;;4.90;1.00;;;;;;5136338;27;20313;-66
2021/03/05 08:50:08;;;;;;;70.88;12.38;;;4.90;1.00;;;;;;5136264;27;20290;-66
2021/03/05 08:52:35;;;;;;;72.10;13.68;;;5.00;1.00;;;;;;5135998;27;20739;-66
2021/03/05 08:55:04;;;;;;;73.10;12.82;;;5.00;1.00;;;;;;5136320;27;20215;-67
2021/03/05 08:57:41;;;;;;;68.07;10.98;;;5.00;1.00;;;;;;5135694;27;20234;-66
2021/03/05 09:00:13;;;;;;;71.75;13.40;;;5.30;1.00;;;;;;5135980;27;20210;-65
2021/03/05 09:02:40;;;;;;;73.50;13.15;;;5.70;1.00;;;;;;5135805;27;20861;-67
2021/03/05 09:05:08;;;;;;;69.60;12.45;;;6.00;1.00;;;;;;5134053;27;20203;-66
2021/03/05 09:07:46;;;;;;;71.55;12.30;;;6.10;1.00;;;;;;5136078;27;20249;-68
2021/03/05 09:10:13;;;;;;;66.60;11.82;;;6.00;1.00;;;;;;5135774;27;20206;-67
2021/03/05 09:12:53;;;;;;;69.55;12.32;;;5.80;1.00;;;;;;5135745;27;20689;-67
2021/03/05 09:15:20;;;;;;;68.38;11.13;;;5.60;1.00;;;;;;5135824;27;20217;-67
2021/03/05 09:17:46;;;;;;;70.10;11.80;;;5.50;1.00;;;;;;5135374;27;20587;-67
2021/03/05 09:20:13;;;;;;;67.45;11.23;;;5.40;1.00;;;;;;5135866;27;20203;-67
2021/03/05 09:22:41;;;;;;;69.72;12.25;;;5.40;1.00;;;;;;5135406;27;20203;-67
2021/03/05 09:25:10;;;;;;;69.70;11.85;;;5.40;1.00;;;;;;5135474;27;20260;-67
2021/03/05 09:27:39;;;;;;;71.03;13.63;;;5.30;1.00;;;;;;5135596;27;20274;-67
2021/03/05 09:30:17;;;;;;;76.20;14.82;;;5.30;1.00;;;;;;5135315;27;20249;-67
2021/03/05 09:32:49;;;;;;;71.95;13.32;;;5.30;1.00;;;;;;5135500;27;20281;-67
2021/03/05 09:35:21;;;;;;;72.95;13.32;;;5.20;1.00;;;;;;5135307;27;20262;-67
2021/03/05 09:37:48;;;;;;;70.50;11.50;;;5.20;1.00;;;;;;5135011;27;20262;-67
2021/03/05 09:40:14;;;;;;;73.72;12.90;;;5.20;1.00;;;;;;5134972;27;20218;-67
2021/03/05 09:42:59;;;;;;;69.60;11.70;;;5.20;1.00;;;;;;5134699;27;20275;-67
2021/03/05 09:45:41;;;;;;;69.07;11.43;;;5.20;1.00;;;;;;5134945;27;20234;-67
2021/03/05 09:48:10;;;;;;;70.57;11.95;;;5.30;1.00;;;;;;5133313;27;20685;-67
2021/03/05 09:50:39;;;;;;;73.32;12.15;;;5.30;1.00;;;;;;5135029;27;20702;-67
2021/03/05 09:53:26;;;;;;;72.43;12.18;;;5.40;1.00;;;;;;5134792;27;20209;-67
2021/03/05 09:55:54;;;;;;;68.47;11.32;;;5.40;1.00;;;;;;5134985;27;20223;-67
2021/03/05 09:58:20;;;;;;;74.22;12.63;;;5.50;1.00;;;;;;5134921;27;20203;-67
2021/03/05 10:00:48;;;;;;;70.75;12.02;;;5.60;1.00;;;;;;5134887;27;20206;-67
2021/03/05 10:03:15;;;;;;;72.28;12.88;;;5.70;1.00;;;;;;5134740;27;20302;-67
2021/03/05 10:05:44;;;;;;;70.50;11.82;;;5.70;1.00;;;;;;5134437;27;20207;-67
2021/03/05 10:08:15;;;;;;;71.28;12.77;;;5.70;1.00;;;;;;5134606;27;20199;-67
2021/03/05 10:11:01;;;;;;;70.45;12.27;;;5.90;1.00;;;;;;5134657;27;20233;-67
2021/03/05 10:13:52;;;;;;;79.88;13.27;;;6.00;1.00;;;;;;5134513;27;20252;-67
2021/03/05 10:16:24;;;;;;;71.40;12.88;;;6.10;1.00;;;;;;5134376;27;20328;-67
2021/03/05 10:18:53;;;;;;;70.85;12.60;;;6.30;1.00;;;;;;5134864;27;20236;-67
2021/03/05 10:21:22;;;;;;;68.85;11.02;;;6.40;1.00;;;;;;5134605;27;20559;-67
2021/03/05 10:23:49;;;;;;;69.88;10.57;;;6.50;1.00;;;;;;5133883;27;20287;-67
2021/03/05 10:26:20;;;;;;;69.72;12.15;;;6.60;1.00;;;;;;5134399;27;20228;-67
2021/03/05 10:28:53;;;;;;;71.60;11.55;;;6.60;1.00;;;;;;5134532;27;20187;-67
2021/03/05 10:31:20;;;;;;;78.53;13.68;;;6.70;1.00;;;;;;5134514;27;20290;-67
2021/03/05 10:33:46;;;;;;;67.13;10.70;;;6.70;1.00;;;;;;5133962;27;20207;-67
2021/03/05 10:36:14;;;;;;;67.05;10.30;;;6.70;1.00;;;;;;5134175;27;20272;-67
2021/03/05 10:38:43;;;;;;;67.07;10.70;;;6.80;1.00;;;;;;5132853;27;20199;-67
2021/03/05 10:41:10;;;;;;;69.25;10.40;;;6.90;1.00;;;;;;5133852;27;20248;-67
2021/03/05 10:43:39;;;;;;;70.72;11.77;;;7.00;1.00;;;;;;5134233;27;20586;-67
2021/03/05 10:46:07;;;;;;;67.80;11.00;;;7.00;1.00;;;;;;5133983;27;20225;-67
2021/03/05 10:48:34;;;;;;;69.43;12.00;;;7.10;1.00;;;;;;5133926;27;20687;-66
2021/03/05 10:51:00;;;;;;;66.95;10.90;;;7.00;1.00;;;;;;5133500;27;20203;-67
2021/03/05 10:53:26;;;;;;;65.97;10.07;;;6.90;1.00;;;;;;5133808;27;20294;-67
2021/03/05 10:55:54;;;;;;;69.88;11.48;;;6.80;1.00;;;;;;5133643;27;20278;-67
2021/03/05 10:58:20;;;;;;;68.43;11.20;;;6.80;1.00;;;;;;5133759;27;20650;-66
2021/03/05 11:00:47;;;;;;;68.22;12.15;;;6.90;1.00;;;;;;5133925;27;20296;-66
2021/03/05 11:03:13;;;;;;;68.00;10.77;;;6.90;1.00;;;;;;5133516;27;20585;-67
2021/03/05 11:05:40;;;;;;;68.68;11.52;;;6.90;1.00;;;;;;5133329;27;20212;-67
2021/03/05 11:08:07;;;;;;;72.40;12.05;;;7.00;1.00;;;;;;5133396;27;20200;-67
2021/03/05 11:10:33;;;;;;;70.10;13.40;;;7.10;1.00;;;;;;5133337;27;20210;-66
2021/03/05 11:13:02;;;;;;;70.05;12.18;;;7.10;1.00;;;;;;5133201;27;20234;-66
2021/03/05 11:15:28;;;;;;;70.63;11.18;;;7.10;1.00;;;;;;5131762;27;20206;-67
2021/03/05 11:17:54;;;;;;;66.80;10.27;;;7.10;1.00;;;;;;5133187;27;20231;-67
2021/03/05 11:20:21;;;;;;;67.70;11.38;;;7.10;1.00;;;;;;5133158;27;20668;-67
2021/03/05 11:22:47;;;;;;;70.28;11.10;;;7.00;1.00;;;;;;5133107;27;20287;-67
2021/03/05 11:25:14;;;;;;;67.78;11.52;;;7.00;1.00;;;;;;5133532;27;20463;-67
2021/03/05 11:27:40;;;;;;;70.15;12.10;;;6.90;1.00;;;;;;5133328;27;20310;-67
2021/03/05 11:30:09;;;;;;;71.15;11.70;;;6.80;1.00;;;;;;5132936;27;20294;-67
2021/03/05 11:32:35;;;;;;;67.47;10.95;;;6.70;1.00;;;;;;5133168;27;20314;-67
2021/03/05 11:35:02;;;;;;;72.90;12.63;;;6.70;1.00;;;;;;5132880;27;20585;-67
2021/03/05 11:37:29;;;;;;;73.95;11.13;;;6.70;1.00;;;;;;5132778;27;20313;-67
2021/03/05 11:39:56;;;;;;;71.63;11.35;;;6.60;1.00;;;;;;5133096;27;20294;-67
2021/03/05 11:42:22;;;;;;;74.07;10.90;;;6.60;1.00;;;;;;5132801;27;20294;-67
2021/03/05 11:44:49;;;;;;;67.55;11.13;;;6.60;1.00;;;;;;5133321;27;20210;-67
2021/03/05 11:47:16;;;;;;;71.25;13.45;;;6.70;1.00;;;;;;5132655;27;20310;-67
2021/03/05 11:49:43;;;;;;;69.53;12.05;;;6.70;1.00;;;;;;5132627;27;20578;-67
2021/03/05 11:52:09;;;;;;;73.20;12.30;;;6.70;1.00;;;;;;5132535;27;20686;-67
2021/03/05 11:54:36;;;;;;;70.60;11.68;;;6.80;1.00;;;;;;5132639;27;20207;-67
2021/03/05 11:57:02;;;;;;;66.88;10.57;;;6.80;1.00;;;;;;5132542;27;20234;-67
2021/03/05 11:59:29;;;;;;;69.45;11.05;;;6.90;1.00;;;;;;5132800;27;20203;-67
2021/03/05 12:01:56;;;;;;;65.82;10.77;;;7.00;1.00;;;;;;5132465;27;20199;-67
2021/03/05 12:04:23;;;;;;;68.90;11.70;;;7.00;1.00;;;;;;5131936;27;20204;-67
2021/03/05 12:06:50;;;;;;;69.53;11.45;;;7.00;1.00;;;;;;5132812;27;20227;-67
2021/03/05 12:09:16;;;;;;;68.78;11.50;;;7.00;1.00;;;;;;5132560;27;20667;-67
2021/03/05 12:11:42;;;;;;;68.00;11.38;;;7.10;1.00;;;;;;5132639;27;20290;-67
2021/03/05 12:14:09;;;;;;;68.05;11.52;;;7.10;1.00;;;;;;5132418;27;20209;-67
2021/03/05 12:16:35;;;;;;;66.97;10.50;;;7.10;1.00;;;;;;5132369;27;20294;-67
2021/03/05 12:19:01;;;;;;;66.95;9.70;;;7.10;1.00;;;;;;5132238;27;20207;-67
2021/03/05 12:21:28;;;;;;;74.55;11.25;;;7.10;1.00;;;;;;5132759;27;20206;-67
2021/03/05 12:23:55;;;;;;;69.20;12.52;;;7.10;1.00;;;;;;5127908;27;20350;-67
2021/03/05 12:26:21;;;;;;;74.95;15.55;;;7.20;1.00;;;;;;5130762;27;20642;-67
2021/03/05 12:28:48;;;;;;;70.88;13.20;;;7.20;1.00;;;;;;5124579;27;20200;-67
2021/03/05 12:31:14;;;;;;;74.60;14.30;;;7.30;1.00;;;;;;5123900;28;20277;-67
2021/03/05 12:33:43;;;;;;;69.20;11.75;;;7.30;1.00;;;;;;5121342;28;20457;-67
2021/03/05 12:36:10;;;;;;;69.37;11.90;;;7.30;1.00;;;;;;5130636;27;20735;-67
2021/03/05 12:38:37;;;;;;;67.95;11.77;;;7.40;1.00;;;;;;5130943;27;20454;-67
2021/03/05 12:41:04;;;;;;;69.03;12.52;;;7.50;1.00;;;;;;5130807;27;20196;-67
2021/03/05 12:43:31;;;;;;;73.03;12.60;;;7.50;1.00;;;;;;5131891;27;20300;-67
2021/03/05 12:45:58;;;;;;;68.25;12.00;;;7.50;1.00;;;;;;5131734;27;20556;-67
2021/03/05 12:48:24;;;;;;;69.30;12.27;;;7.50;1.00;;;;;;5131188;27;20197;-67
2021/03/05 12:50:50;;;;;;;67.65;11.63;;;7.40;1.00;;;;;;5130380;27;20482;-67
2021/03/05 12:53:17;;;;;;;74.57;12.23;;;7.30;1.00;;;;;;5126318;27;20229;-67
2021/03/05 12:55:44;;;;;;;66.53;10.30;;;7.20;1.00;;;;;;5124726;27;20200;-67
2021/03/05 12:58:10;;;;;;;67.85;11.82;;;7.20;1.00;;;;;;5131590;27;20573;-67